createdAt,value
2023-01-09T00:04:19.092Z,63.27
2023-01-09T00:09:22.913Z,63.04
2023-01-09T00:14:24.939Z,63.41
2023-01-09T00:19:27.014Z,63.60
2023-01-09T00:24:29.213Z,63.36
2023-01-09T00:29:31.188Z,63.86
2023-01-09T00:34:37.744Z,63.66
2023-01-09T00:39:41.790Z,63.81
2023-01-09T00:44:48.246Z,63.72
2023-01-09T00:49:52.368Z,64.11
2023-01-09T00:54:54.350Z,64.41
2023-01-09T00:59:56.502Z,64.15
2023-01-09T01:05:17.123Z,64.93
2023-01-09T01:10:26.796Z,65.25
2023-01-09T01:15:29.815Z,65.68
2023-01-09T01:20:31.855Z,65.51
2023-01-09T01:25:37.756Z,65.99
2023-01-09T01:30:41.029Z,66.27
2023-01-09T01:35:43.017Z,66.39
2023-01-09T01:40:45.082Z,66.33
2023-01-09T01:45:47.172Z,66.30
2023-01-09T01:51:01.499Z,66.38
2023-01-09T01:56:17.563Z,66.63
2023-01-09T02:06:37.685Z,66.95
2023-01-09T02:11:46.162Z,66.71
2023-01-09T02:17:15.627Z,66.92
2023-01-09T02:23:03.579Z,66.82
2023-01-09T02:28:17.077Z,67.03
2023-01-09T02:33:54.246Z,67.03
2023-01-09T02:39:31.652Z,67.09
2023-01-09T02:44:37.117Z,66.99
2023-01-09T02:49:40.435Z,67.04
2023-01-09T02:55:03.664Z,66.93
2023-01-09T03:00:11.767Z,66.79
2023-01-09T03:05:33.127Z,66.61
2023-01-09T03:11:01.294Z,67.25
2023-01-09T03:16:08.756Z,67.34
2023-01-09T03:21:12.203Z,67.36
2023-01-09T03:26:14.426Z,67.01
2023-01-09T03:31:17.652Z,67.31
2023-01-09T03:36:21.181Z,67.07
2023-01-09T03:41:23.236Z,67.41
2023-01-09T03:46:25.279Z,67.36
2023-01-09T03:51:27.382Z,67.94
2023-01-09T03:56:29.426Z,68.03
2023-01-09T04:01:31.727Z,67.35
2023-01-09T04:06:33.893Z,68.10
2023-01-09T04:11:35.891Z,68.31
2023-01-09T04:16:37.934Z,68.40
2023-01-09T04:21:39.992Z,68.50
2023-01-09T04:26:41.960Z,68.95
2023-01-09T04:31:44.372Z,68.87
2023-01-09T04:36:46.667Z,68.50
2023-01-09T04:41:51.705Z,68.41
2023-01-09T04:46:55.142Z,68.65
2023-01-09T04:51:57.208Z,69.73
2023-01-09T04:56:59.174Z,68.42
2023-01-09T05:02:01.348Z,69.29
2023-01-09T05:07:03.842Z,69.49
2023-01-09T05:12:06.270Z,69.75
2023-01-09T05:17:08.255Z,69.16
2023-01-09T05:22:10.307Z,69.36
2023-01-09T05:27:12.546Z,69.63
2023-01-09T05:32:14.625Z,70.30
2023-01-09T05:37:16.700Z,69.65
2023-01-09T05:42:18.751Z,69.99
2023-01-09T05:47:20.816Z,69.69
2023-01-09T05:52:24.340Z,70.09
2023-01-09T05:57:26.542Z,70.29
2023-01-09T06:02:28.626Z,70.08
2023-01-09T06:07:30.803Z,70.31
2023-01-09T06:12:32.888Z,70.38
2023-01-09T06:17:34.962Z,70.65
2023-01-09T06:22:37.693Z,71.32
2023-01-09T06:27:39.687Z,71.57
2023-01-09T06:32:41.736Z,72.12
2023-01-09T06:37:44.505Z,72.27
2023-01-09T06:42:47.325Z,71.59
2023-01-09T06:47:50.329Z,71.90
2023-01-09T06:52:52.417Z,72.29
2023-01-09T06:57:54.632Z,71.90
2023-01-09T07:02:56.739Z,72.19
2023-01-09T07:07:58.843Z,72.98
2023-01-09T07:13:00.886Z,73.01
2023-01-09T07:18:03.785Z,72.38
2023-01-09T07:23:05.881Z,72.55
2023-01-09T07:28:08.055Z,72.47
2023-01-09T07:33:10.496Z,72.87
2023-01-09T07:38:12.675Z,73.27
2023-01-09T07:43:15.125Z,73.11
2023-01-09T07:48:17.222Z,73.49
2023-01-09T07:53:19.428Z,73.31
2023-01-09T07:58:21.483Z,73.21
2023-01-09T08:03:23.544Z,72.70
2023-01-09T08:08:25.913Z,73.53
2023-01-09T08:13:30.407Z,73.88
2023-01-09T08:18:34.654Z,73.31
2023-01-09T08:23:36.743Z,73.27
2023-01-09T08:28:38.767Z,73.15
2023-01-09T08:33:40.990Z,73.46
2023-01-09T08:38:43.295Z,73.10
2023-01-09T08:44:03.603Z,73.47
2023-01-09T08:49:05.716Z,73.17
2023-01-09T08:54:07.904Z,73.33
2023-01-09T08:59:13.283Z,72.96
2023-01-09T09:04:17.063Z,75.86
2023-01-09T09:09:19.651Z,83.51
2023-01-09T09:14:40.115Z,84.20
2023-01-09T09:19:43.086Z,84.44
2023-01-09T09:24:45.205Z,84.08
2023-01-09T09:29:50.021Z,83.73
2023-01-09T09:34:52.158Z,82.06
2023-01-09T09:39:54.470Z,81.02
2023-01-09T09:45:23.921Z,79.08
2023-01-09T09:50:50.843Z,77.95
2023-01-09T09:55:53.483Z,76.54
2023-01-09T10:00:57.613Z,66.85
2023-01-09T10:06:03.514Z,68.07
2023-01-09T10:11:13.616Z,65.15
2023-01-09T10:16:40.812Z,64.25
2023-01-09T10:22:20.203Z,64.96
2023-01-09T10:28:03.098Z,63.36
2023-01-09T10:33:26.891Z,63.78
2023-01-09T10:38:37.332Z,60.36
2023-01-09T10:43:49.300Z,60.95
2023-01-09T10:48:56.530Z,63.78
2023-01-09T10:53:58.641Z,64.04
2023-01-09T10:59:00.583Z,63.36
2023-01-09T11:04:03.068Z,64.27
2023-01-09T11:09:06.032Z,64.63
2023-01-09T11:14:17.928Z,64.26
2023-01-09T11:19:20.495Z,63.69
2023-01-09T11:24:22.457Z,64.10
2023-01-09T11:29:27.465Z,64.23
2023-01-09T11:34:32.817Z,64.00
2023-01-09T11:39:39.954Z,64.08
2023-01-09T11:44:42.000Z,64.73
2023-01-09T11:49:46.460Z,65.51
2023-01-09T11:54:58.045Z,65.54
2023-01-09T12:00:04.551Z,66.02
2023-01-09T12:05:38.842Z,66.20
2023-01-09T12:11:28.459Z,66.43
2023-01-09T12:16:44.992Z,66.71
2023-01-09T12:21:53.063Z,67.24
2023-01-09T12:27:17.414Z,67.46
2023-01-09T12:32:49.832Z,67.75
2023-01-09T12:38:10.390Z,67.61
2023-01-09T12:43:40.433Z,68.11
2023-01-09T12:49:06.392Z,68.57
2023-01-09T12:54:15.777Z,68.40
2023-01-09T12:59:30.397Z,68.67
2023-01-09T13:04:37.504Z,69.33
2023-01-09T13:09:50.371Z,69.51
2023-01-09T13:15:01.143Z,69.00
2023-01-09T13:20:05.210Z,69.71
2023-01-09T13:25:32.966Z,69.77
2023-01-09T13:31:04.925Z,70.70
2023-01-09T13:36:07.396Z,70.52
2023-01-09T13:41:32.978Z,71.39
2023-01-09T13:46:39.504Z,70.91
2023-01-09T13:51:44.652Z,71.71
2023-01-09T13:57:20.829Z,72.28
2023-01-09T14:02:50.207Z,72.31
2023-01-09T14:08:07.291Z,72.45
2023-01-09T14:13:17.355Z,72.31
2023-01-09T14:18:29.083Z,72.31
2023-01-09T14:23:50.851Z,72.80
2023-01-09T14:29:32.419Z,72.34
2023-01-09T14:34:39.654Z,72.78
2023-01-09T14:39:46.430Z,72.99
2023-01-09T14:45:16.542Z,73.17
2023-01-09T14:50:38.336Z,73.40
2023-01-09T14:55:51.729Z,72.87
2023-01-09T15:01:10.597Z,73.22
2023-01-09T15:06:20.493Z,73.95
2023-01-09T15:11:22.991Z,73.98
2023-01-09T15:16:26.892Z,74.28
2023-01-09T15:21:33.754Z,74.27
2023-01-09T15:26:36.011Z,75.00
2023-01-09T15:31:41.943Z,75.29
2023-01-09T15:36:45.129Z,74.95
2023-01-09T15:42:06.058Z,75.28
2023-01-09T15:47:21.882Z,75.09
2023-01-09T15:52:24.671Z,75.38
2023-01-09T15:57:28.336Z,75.24
2023-01-09T16:02:48.799Z,75.25
2023-01-09T16:07:51.525Z,75.35
2023-01-09T16:12:55.018Z,75.56
2023-01-09T16:18:18.420Z,75.03
2023-01-09T16:23:31.587Z,75.26
2023-01-09T16:28:34.010Z,75.46
2023-01-09T16:33:37.227Z,75.63
2023-01-09T16:38:41.893Z,75.85
2023-01-09T16:43:44.050Z,76.07
2023-01-09T16:48:46.831Z,75.94
2023-01-09T16:53:49.962Z,75.69
2023-01-09T16:58:55.035Z,75.26
2023-01-09T17:03:57.224Z,75.69
2023-01-09T17:08:59.535Z,76.04
2023-01-09T17:14:02.712Z,75.66
2023-01-09T17:19:05.652Z,75.89
2023-01-09T17:24:26.698Z,76.11
2023-01-09T17:29:30.419Z,75.92
2023-01-09T17:34:34.168Z,75.38
2023-01-09T17:39:36.851Z,75.54
2023-01-09T17:44:39.067Z,75.61
2023-01-09T17:49:42.717Z,75.05
2023-01-09T17:54:45.089Z,74.97
2023-01-09T17:59:47.226Z,75.54
2023-01-09T18:04:49.589Z,75.55
2023-01-09T18:09:51.662Z,75.35
2023-01-09T18:14:54.485Z,75.26
2023-01-09T18:19:57.078Z,75.51
2023-01-09T18:24:59.469Z,75.76
2023-01-09T18:30:05.013Z,75.88
2023-01-09T18:35:09.686Z,75.76
2023-01-09T18:40:12.777Z,76.46
2023-01-09T18:45:15.390Z,75.84
2023-01-09T18:50:18.112Z,76.14
2023-01-09T18:55:22.376Z,76.21
2023-01-09T19:00:25.171Z,76.06
2023-01-09T19:05:27.921Z,76.41
2023-01-09T19:10:30.339Z,75.85
2023-01-09T19:15:34.943Z,75.77
2023-01-09T19:20:40.149Z,75.54
2023-01-09T19:25:42.495Z,75.98
2023-01-09T19:30:45.735Z,75.97
2023-01-09T19:35:53.191Z,76.25
2023-01-09T19:40:57.362Z,76.13
2023-01-09T19:46:00.932Z,76.48
2023-01-09T19:51:05.678Z,76.51
2023-01-09T19:56:13.468Z,76.54
2023-01-09T20:01:18.497Z,76.31
2023-01-09T20:06:25.658Z,76.83
2023-01-09T20:11:30.936Z,76.71
2023-01-09T20:16:33.713Z,76.51
2023-01-09T20:21:37.655Z,76.59
2023-01-09T20:26:40.934Z,76.69
2023-01-09T20:31:43.424Z,76.40
2023-01-09T20:36:46.701Z,76.42
2023-01-09T20:41:49.012Z,76.84
2023-01-09T20:46:53.899Z,76.64
2023-01-09T20:51:56.439Z,76.55
2023-01-09T20:56:58.524Z,76.70
2023-01-09T21:02:00.668Z,76.87
2023-01-09T21:07:02.785Z,76.95
2023-01-09T21:12:25.029Z,76.84
2023-01-09T21:17:28.477Z,76.76
2023-01-09T21:22:33.584Z,76.79
2023-01-09T21:27:47.395Z,76.64
2023-01-09T21:32:49.567Z,76.68
2023-01-09T21:37:51.639Z,76.54
2023-01-09T21:43:12.120Z,75.94
2023-01-09T21:48:14.054Z,76.49
2023-01-09T21:53:16.440Z,76.60
2023-01-09T21:58:18.586Z,76.37
2023-01-09T22:03:22.380Z,76.95
2023-01-09T22:08:24.425Z,77.27
2023-01-09T22:13:27.621Z,76.93
2023-01-09T22:18:29.652Z,76.77
2023-01-09T22:23:31.804Z,77.18
2023-01-09T22:28:33.777Z,76.96
2023-01-09T22:33:36.286Z,76.61
2023-01-09T22:38:38.423Z,76.59
2023-01-09T22:43:40.594Z,77.23
2023-01-09T22:48:42.787Z,76.84
2023-01-09T22:53:45.715Z,76.73
2023-01-09T22:58:52.389Z,76.53
2023-01-09T23:03:54.474Z,76.32
2023-01-09T23:08:56.447Z,76.50
2023-01-09T23:13:58.507Z,76.05
2023-01-09T23:19:00.624Z,75.95
2023-01-09T23:24:02.704Z,76.21
2023-01-09T23:29:07.147Z,76.29
2023-01-09T23:34:14.522Z,75.83
2023-01-09T23:39:16.859Z,76.14
2023-01-09T23:44:18.968Z,76.14
2023-01-09T23:49:21.440Z,76.18
2023-01-09T23:54:23.543Z,76.12
2023-01-09T23:59:25.505Z,76.36
